Decoded Metar for VTSS (SONGKHLA in THAILAND) (IATA:HDY) | Meteo·Mobile Aviation Weather
aviador You're here:

VTSS Decoded Metar

SONGKHLA in THAILAND
Report Time2020-02-23 10:30:00
UTC Time2020-02-23 10:40:28
Flight Rules vfr VFR
Wind060° at 17 kt
W.Decomp.*RWY 08: 16.0 kt HW 5.8 kt LCW
Visibility9999 m
Phenomena:N/A
Clouds:Scattered 020 Hf
Expected CloudBase > 2,800 ft AGL from Temp-Dew spread
CeilingNone
Temp29°C (ISA +14)
Dew Point22°C (66% RH)
Heat Index32.0°C
AAT27.6°C
QNH1012 hPa
Density Alt2,129 ft
Elevation115 ft
Report Wrong Elevation
Raw Report
METAR VTSS 231030Z 06017KT 9999 SCT020 29/22 Q1012 NOSIG=####018000600####
SPUS99 KWBC 231035

Extra information for VTSS:More info

Metar Taf Metar & Taf Last 4 Metars F.Rules Stats Wind Profile Meteogram Temp Stats Airport Information Weather charts Add Link Nearby VenuesMetar ALERT Operation Metar Decoded Social comments